Time;durP1;ratioP1;P1;durP2;ratioP2;P2;SDS_P1;SDS_P2;PMS_P1;PMS_P2;Temp;Humidity;BMP_temperature;BMP_pressure;BME280_temperature;BME280_humidity;BME280_pressure;Samples;Min_cycle;Max_cycle;Signal;HPM_P1;HPM_P2
2023/06/17 00:00:20;;;;;;;5.80;4.50;;;;;;;16.89;100.00;95654.78;4945703;28;20027;-94
2023/06/17 00:02:46;;;;;;;7.10;4.50;;;;;;;16.85;100.00;95649.09;4945447;29;20559;-89
2023/06/17 00:05:11;;;;;;;5.55;4.50;;;;;;;16.83;100.00;95651.09;4945630;29;20158;-88
2023/06/17 00:07:39;;;;;;;10.90;4.30;;;;;;;16.86;100.00;95655.94;4944902;29;20114;-91
2023/06/17 00:10:05;;;;;;;6.65;4.72;;;;;;;16.87;100.00;95662.78;4928428;29;20560;-91
2023/06/17 00:12:31;;;;;;;6.25;4.57;;;;;;;16.85;100.00;95662.19;4935330;29;20077;-88
2023/06/17 00:15:02;;;;;;;4.88;4.47;;;;;;;16.84;100.00;95664.00;4944601;29;20027;-88
2023/06/17 00:17:30;;;;;;;7.10;4.90;;;;;;;16.80;100.00;95670.59;4943083;29;20038;-88
2023/06/17 00:19:57;;;;;;;4.03;3.70;;;;;;;16.70;100.00;95669.31;4945189;28;20023;-86
2023/06/17 00:22:25;;;;;;;4.57;4.28;;;;;;;16.70;100.00;95677.97;4943598;29;20041;-87
2023/06/17 00:24:50;;;;;;;5.28;4.80;;;;;;;16.71;100.00;95678.78;4944865;28;20443;-87
2023/06/17 00:27:16;;;;;;;6.00;4.55;;;;;;;16.62;100.00;95674.69;4944775;29;20110;-89
2023/06/17 00:29:41;;;;;;;8.50;4.68;;;;;;;16.59;100.00;95669.84;4943850;28;20069;-88
2023/06/17 00:32:07;;;;;;;7.32;5.03;;;;;;;16.53;100.00;95671.38;4942854;28;20410;-88
2023/06/17 00:34:32;;;;;;;8.60;5.57;;;;;;;16.56;100.00;95683.31;4943193;29;20027;-90
2023/06/17 00:36:58;;;;;;;6.45;5.95;;;;;;;16.59;100.00;95680.31;4943452;29;20122;-86
2023/06/17 00:39:23;;;;;;;6.15;5.55;;;;;;;16.63;100.00;95681.56;4942497;29;20027;-89
2023/06/17 00:41:49;;;;;;;6.25;5.72;;;;;;;16.49;100.00;95675.38;4946560;28;20110;-85
2023/06/17 00:44:15;;;;;;;6.75;5.20;;;;;;;16.52;100.00;95674.19;4945948;28;20034;-89
2023/06/17 00:46:42;;;;;;;6.05;5.28;;;;;;;16.53;100.00;95667.97;4945523;28;20023;-86
2023/06/17 00:49:11;;;;;;;5.78;5.38;;;;;;;16.62;100.00;95661.63;4927503;29;20035;-87
2023/06/17 00:51:37;;;;;;;5.25;4.75;;;;;;;16.69;100.00;95671.16;4926045;29;20019;-86
2023/06/17 00:54:03;;;;;;;5.50;5.10;;;;;;;16.63;100.00;95673.72;4943564;29;20417;-88
2023/06/17 00:56:33;;;;;;;6.63;5.40;;;;;;;16.54;100.00;95677.41;4942243;29;20493;-89
2023/06/17 00:59:01;;;;;;;5.55;4.97;;;;;;;16.56;100.00;95685.91;4945846;29;20109;-93
2023/06/17 01:01:26;;;;;;;5.70;5.28;;;;;;;16.61;100.00;95686.97;4927330;29;20019;-93
2023/06/17 01:03:56;;;;;;;6.10;5.60;;;;;;;16.67;100.00;95695.84;4942650;29;20023;-88
2023/06/17 01:06:25;;;;;;;6.82;6.28;;;;;;;16.64;100.00;95696.22;4925733;29;20334;-85
2023/06/17 01:08:57;;;;;;;6.82;5.43;;;;;;;16.64;100.00;95691.81;4942808;29;20039;-92
2023/06/17 01:11:23;;;;;;;6.22;5.63;;;;;;;16.63;100.00;95684.97;4943545;29;21050;-86
2023/06/17 01:13:51;;;;;;;7.45;6.75;;;;;;;16.61;100.00;95684.34;4941153;29;20148;-85
2023/06/17 01:16:17;;;;;;;7.28;6.60;;;;;;;16.59;100.00;95699.44;4941333;29;20070;-84
2023/06/17 01:18:43;;;;;;;7.82;6.88;;;;;;;16.56;100.00;95707.66;4942994;28;20023;-83
2023/06/17 01:21:08;;;;;;;10.10;7.35;;;;;;;16.53;100.00;95713.25;4942604;28;20033;-83
2023/06/17 01:23:37;;;;;;;7.72;7.07;;;;;;;16.54;100.00;95722.69;4942955;28;20034;-84
2023/06/17 01:26:05;;;;;;;7.35;6.82;;;;;;;16.49;100.00;95725.06;4940710;29;20039;-83
2023/06/17 01:28:33;;;;;;;9.63;6.95;;;;;;;16.54;100.00;95719.25;4943446;28;20429;-82
2023/06/17 01:30:59;;;;;;;7.88;7.20;;;;;;;16.52;100.00;95722.06;4942070;28;20469;-80
2023/06/17 01:33:25;;;;;;;8.73;7.82;;;;;;;16.51;100.00;95730.09;4942352;28;20070;-82
2023/06/17 01:36:10;;;;;;;10.15;8.40;;;;;;;16.43;100.00;95722.38;4937144;29;20042;-85
2023/06/17 01:38:43;;;;;;;8.43;7.55;;;;;;;16.50;100.00;95738.94;4940871;29;20113;-84
2023/06/17 01:41:23;;;;;;;9.95;8.20;;;;;;;16.46;100.00;95724.63;4942337;29;20031;-86
2023/06/17 01:43:50;;;;;;;8.27;7.53;;;;;;;16.42;100.00;95746.91;4928004;29;20114;-91
2023/06/17 01:46:15;;;;;;;8.85;7.93;;;;;;;16.46;100.00;95738.53;4946396;28;20092;-91
2023/06/17 01:48:41;;;;;;;8.98;7.90;;;;;;;16.46;100.00;95737.69;4926277;29;20054;-95
2023/06/17 01:51:08;;;;;;;8.40;7.60;;;;;;;16.38;100.00;95736.00;4945209;29;20023;-92
2023/06/17 01:53:33;;;;;;;8.23;7.38;;;;;;;16.38;100.00;95736.00;4943990;29;20113;-94
2023/06/17 01:55:59;;;;;;;9.15;8.13;;;;;;;16.40;100.00;95730.59;4944881;28;20051;-93
2023/06/17 01:58:24;;;;;;;8.55;7.60;;;;;;;16.42;100.00;95728.59;4934289;29;20095;-92
2023/06/17 02:00:50;;;;;;;8.48;7.65;;;;;;;16.47;100.00;95732.28;4943527;29;20036;-89
2023/06/17 02:03:16;;;;;;;12.27;9.05;;;;;;;16.48;100.00;95720.00;4928717;29;20027;-89
2023/06/17 02:05:42;;;;;;;8.88;7.88;;;;;;;16.39;100.00;95714.09;4943848;29;20067;-93
2023/06/17 02:08:07;;;;;;;8.32;7.55;;;;;;;16.48;100.00;95717.41;4945367;29;20109;-93
2023/06/17 02:10:33;;;;;;;8.77;6.78;;;;;;;16.49;100.00;95727.69;4945390;29;20114;-92
2023/06/17 02:13:07;;;;;;;9.93;7.22;;;;;;;16.50;100.00;95726.69;4926191;29;20043;-94
2023/06/17 02:15:33;;;;;;;6.90;6.22;;;;;;;16.48;100.00;95735.69;4934416;29;20023;-96
2023/06/17 02:17:59;;;;;;;7.90;5.40;;;;;;;16.40;100.00;95723.56;4946293;28;20473;-83
2023/06/17 02:20:25;;;;;;;5.07;4.65;;;;;;;16.41;100.00;95724.41;4948027;29;20577;-92
2023/06/17 02:22:51;;;;;;;4.15;3.75;;;;;;;16.38;100.00;95719.50;4946582;29;20511;-86
2023/06/17 02:25:16;;;;;;;5.70;3.83;;;;;;;16.33;100.00;95715.66;4946849;29;20059;-94
2023/06/17 02:27:42;;;;;;;6.25;3.80;;;;;;;16.35;100.00;95711.06;4946277;28;20075;-92
2023/06/17 02:30:09;;;;;;;6.47;4.47;;;;;;;16.29;100.00;95703.97;4931461;29;20082;-92
2023/06/17 02:32:35;;;;;;;4.40;3.85;;;;;;;16.33;100.00;95701.78;4929687;29;20058;-87
2023/06/17 02:35:03;;;;;;;4.00;3.70;;;;;;;16.32;100.00;95702.78;4948001;28;20027;-92
2023/06/17 02:37:29;;;;;;;4.32;3.97;;;;;;;16.32;100.00;95710.63;4948626;29;20023;-90
2023/06/17 02:39:55;;;;;;;4.50;4.20;;;;;;;16.32;100.00;95727.13;4930868;29;20034;-90
2023/06/17 02:42:20;;;;;;;5.78;4.05;;;;;;;16.32;100.00;95734.16;4945617;29;20031;-88
2023/06/17 02:44:46;;;;;;;5.35;4.85;;;;;;;16.15;100.00;95733.56;4928743;29;20037;-90
2023/06/17 02:47:12;;;;;;;4.88;4.57;;;;;;;16.23;100.00;95733.47;4945423;29;20027;-86
2023/06/17 02:49:37;;;;;;;6.70;4.85;;;;;;;16.33;100.00;95744.44;4943256;29;20505;-86
2023/06/17 02:52:03;;;;;;;6.07;5.60;;;;;;;16.26;100.00;95733.09;4944967;28;20046;-88
2023/06/17 02:54:28;;;;;;;6.13;5.57;;;;;;;16.20;100.00;95725.19;4929004;29;20031;-90
2023/06/17 02:56:54;;;;;;;5.85;5.22;;;;;;;16.21;100.00;95729.44;4931153;29;20038;-94
2023/06/17 02:59:22;;;;;;;6.00;5.50;;;;;;;16.27;100.00;95720.84;4948276;29;20031;-94
2023/06/17 03:01:47;;;;;;;6.80;5.30;;;;;;;16.21;100.00;95719.75;4941118;29;20035;-91
2023/06/17 03:04:13;;;;;;;6.38;5.75;;;;;;;16.26;100.00;95724.44;4926252;29;20019;-94
2023/06/17 03:06:40;;;;;;;6.28;5.78;;;;;;;16.23;100.00;95730.84;4947720;29;20065;-94
2023/06/17 03:09:09;;;;;;;6.10;5.60;;;;;;;16.21;100.00;95734.66;4946767;29;20019;-89
2023/06/17 03:11:39;;;;;;;6.30;5.88;;;;;;;16.25;100.00;95738.50;4929489;29;20032;-94
2023/06/17 03:14:05;;;;;;;6.47;5.70;;;;;;;16.33;100.00;95738.38;4936489;29;20466;-88
2023/06/17 03:16:34;;;;;;;5.72;4.80;;;;;;;16.25;100.00;95733.25;4946522;28;20389;-89
2023/06/17 03:19:00;;;;;;;4.88;4.38;;;;;;;16.25;100.00;95730.66;4942353;29;20034;-84
2023/06/17 03:21:29;;;;;;;5.18;4.70;;;;;;;16.22;100.00;95723.19;4944171;29;20062;-84
2023/06/17 03:23:58;;;;;;;5.07;4.60;;;;;;;16.30;100.00;95729.13;4942346;29;20116;-84
2023/06/17 03:26:24;;;;;;;5.22;4.90;;;;;;;16.35;100.00;95733.78;4927491;29;20023;-86
2023/06/17 03:28:50;;;;;;;5.07;4.75;;;;;;;16.34;100.00;95734.78;4926785;29;20031;-85
2023/06/17 03:31:20;;;;;;;5.40;5.00;;;;;;;16.16;100.00;95722.13;4942799;28;20054;-76
2023/06/17 03:33:47;;;;;;;6.47;5.88;;;;;;;16.09;100.00;95731.69;4943716;28;20130;-81
2023/06/17 03:36:12;;;;;;;6.03;5.15;;;;;;;16.16;100.00;95731.78;4942875;29;20066;-81
2023/06/17 03:38:37;;;;;;;6.20;5.75;;;;;;;16.02;100.00;95728.19;4945094;28;20059;-86
2023/06/17 03:41:03;;;;;;;5.90;5.25;;;;;;;16.09;100.00;95718.63;4944109;28;20536;-87
2023/06/17 03:43:28;;;;;;;5.65;5.18;;;;;;;16.16;100.00;95727.34;4944310;29;20804;-86
2023/06/17 03:45:54;;;;;;;6.93;5.15;;;;;;;16.14;100.00;95724.13;4943744;29;20035;-87
2023/06/17 03:48:19;;;;;;;5.70;4.90;;;;;;;16.02;100.00;95720.38;4944566;29;20086;-81
2023/06/17 03:50:45;;;;;;;12.55;5.60;;;;;;;16.05;100.00;95724.44;4945090;28;20082;-85
2023/06/17 03:53:10;;;;;;;6.22;5.82;;;;;;;15.99;100.00;95725.19;4927291;29;20045;-91
2023/06/17 03:55:36;;;;;;;6.93;6.43;;;;;;;16.06;100.00;95733.88;4945064;29;20537;-87
2023/06/17 03:58:01;;;;;;;9.38;6.45;;;;;;;16.10;100.00;95749.00;4959455;28;20066;-88
2023/06/17 04:00:27;;;;;;;8.02;7.40;;;;;;;15.88;100.00;95734.28;4945138;28;20031;-88
2023/06/17 04:02:52;;;;;;;10.45;9.52;;;;;;;15.91;100.00;95759.25;4943150;29;20118;-87
2023/06/17 04:05:18;;;;;;;10.65;9.65;;;;;;;15.83;100.00;95774.03;4944481;29;20034;-89
2023/06/17 04:07:43;;;;;;;9.60;8.80;;;;;;;15.84;100.00;95787.91;4944650;28;20082;-85
2023/06/17 04:10:09;;;;;;;6.75;6.28;;;;;;;15.79;100.00;95782.41;4943422;28;20784;-80
2023/06/17 04:12:38;;;;;;;6.45;6.00;;;;;;;15.83;100.00;95786.25;4945414;28;20035;-86
2023/06/17 04:15:05;;;;;;;;;;;;;;;15.91;100.00;95780.13;4944281;28;20016;-84
2023/06/17 04:17:32;;;;;;;10.98;5.20;;;;;;;16.01;100.00;95765.00;4929087;29;19986;-89
2023/06/17 04:20:04;;;;;;;8.90;5.25;;;;;;;16.02;100.00;95769.22;4924791;29;20082;-90
2023/06/17 04:22:29;;;;;;;6.13;5.57;;;;;;;15.92;100.00;95774.75;4919751;29;20024;-77
2023/06/17 04:24:55;;;;;;;13.13;4.28;;;;;;;15.91;100.00;95772.31;4941906;28;20465;-80
2023/06/17 04:27:22;;;;;;;6.07;5.22;;;;;;;15.91;100.00;95769.69;4941926;29;20034;-87
2023/06/17 04:29:47;;;;;;;8.32;4.60;;;;;;;15.97;100.00;95787.25;4943172;29;20497;-86
2023/06/17 04:32:15;;;;;;;6.97;5.13;;;;;;;15.96;100.00;95789.03;4924894;29;20047;-87
2023/06/17 04:34:47;;;;;;;6.07;4.95;;;;;;;16.03;100.00;95800.38;4927250;29;20508;-85
2023/06/17 04:37:16;;;;;;;4.80;4.40;;;;;;;16.02;100.00;95805.81;4926586;29;20015;-90
2023/06/17 04:39:42;;;;;;;4.68;3.95;;;;;;;16.03;100.00;95805.63;4944329;28;20034;-91
2023/06/17 04:42:12;;;;;;;5.57;4.00;;;;;;;16.08;100.00;95808.50;4943224;29;20065;-86
2023/06/17 04:44:38;;;;;;;5.38;3.50;;;;;;;16.02;100.00;95808.44;4943750;28;20089;-86
2023/06/17 04:47:09;;;;;;;4.13;3.47;;;;;;;16.00;100.00;95803.38;4944004;29;20685;-88
2023/06/17 04:49:38;;;;;;;4.18;3.80;;;;;;;16.01;100.00;95804.19;4925905;29;20546;-86
2023/06/17 04:52:05;;;;;;;4.25;3.85;;;;;;;16.05;100.00;95803.66;4942920;29;20023;-87
2023/06/17 04:54:31;;;;;;;4.80;3.20;;;;;;;16.12;100.00;95812.34;4942838;28;20047;-85
2023/06/17 04:56:57;;;;;;;3.53;3.22;;;;;;;16.10;100.00;95811.75;4942590;29;20032;-84
2023/06/17 04:59:23;;;;;;;4.45;3.42;;;;;;;16.08;100.00;95798.06;4943875;28;20047;-89
2023/06/17 05:01:48;;;;;;;3.60;3.10;;;;;;;16.15;100.00;95803.34;4925971;29;20062;-86
2023/06/17 05:04:13;;;;;;;4.03;2.70;;;;;;;16.10;100.00;95784.78;4942463;29;20412;-84
2023/06/17 05:06:39;;;;;;;4.15;3.85;;;;;;;16.05;100.00;95780.13;4942425;28;20023;-86
2023/06/17 05:09:04;;;;;;;3.95;2.92;;;;;;;16.21;100.00;95776.47;4923093;29;20031;-86
2023/06/17 05:11:30;;;;;;;3.03;2.72;;;;;;;16.40;100.00;95780.28;4941802;29;20878;-85
2023/06/17 05:13:55;;;;;;;3.55;2.55;;;;;;;16.46;100.00;95780.34;4944125;28;20035;-85
2023/06/17 05:16:21;;;;;;;2.60;2.40;;;;;;;16.30;100.00;95759.69;4940979;29;20036;-85
2023/06/17 05:18:46;;;;;;;2.92;2.35;;;;;;;16.48;100.00;95761.84;4942061;29;20139;-87
2023/06/17 05:21:12;;;;;;;2.15;2.00;;;;;;;16.55;100.00;95754.91;4942403;29;20556;-84
2023/06/17 05:23:37;;;;;;;4.43;2.20;;;;;;;16.51;100.00;95746.59;4927902;29;20028;-82
2023/06/17 05:26:02;;;;;;;3.58;2.65;;;;;;;16.57;100.00;95740.66;4943585;29;20055;-86
2023/06/17 05:28:28;;;;;;;2.63;2.15;;;;;;;16.71;100.00;95737.16;4941551;29;20063;-87
2023/06/17 05:30:53;;;;;;;2.70;2.50;;;;;;;16.68;100.00;95729.69;4942551;29;20105;-86
2023/06/17 05:33:19;;;;;;;3.17;2.00;;;;;;;16.69;100.00;95722.66;4942030;28;20035;-87
2023/06/17 05:35:44;;;;;;;2.70;2.50;;;;;;;16.68;100.00;95734.09;4944376;29;20034;-86
2023/06/17 05:38:10;;;;;;;2.75;2.42;;;;;;;16.64;100.00;95728.44;4943062;28;20031;-87
2023/06/17 05:40:35;;;;;;;2.28;2.15;;;;;;;16.66;100.00;95728.25;4926424;29;20099;-84
2023/06/17 05:43:01;;;;;;;3.00;2.47;;;;;;;16.70;100.00;95729.47;4942088;29;20046;-86
2023/06/17 05:45:26;;;;;;;5.03;2.30;;;;;;;16.70;100.00;95745.19;4942293;29;20030;-84
2023/06/17 05:47:52;;;;;;;3.15;2.50;;;;;;;16.57;100.00;95734.59;4943115;29;20024;-85
2023/06/17 05:50:17;;;;;;;3.10;2.90;;;;;;;16.62;100.00;95727.81;4941850;29;20500;-85
2023/06/17 05:52:45;;;;;;;3.40;3.10;;;;;;;16.61;100.00;95728.81;4944984;28;20055;-83
2023/06/17 05:55:10;;;;;;;4.43;2.60;;;;;;;16.59;100.00;95732.63;4945903;28;20407;-81
2023/06/17 05:57:36;;;;;;;3.63;3.05;;;;;;;16.60;100.00;95726.41;4946872;29;20027;-84
2023/06/17 06:00:01;;;;;;;3.47;3.28;;;;;;;16.61;100.00;95741.06;4946800;29;20623;-83
2023/06/17 06:02:27;;;;;;;2.78;2.55;;;;;;;16.65;100.00;95745.75;4926892;28;20027;-80
2023/06/17 06:04:53;;;;;;;3.63;2.50;;;;;;;16.63;100.00;95744.34;4945756;29;20397;-82
2023/06/17 06:07:18;;;;;;;2.47;2.28;;;;;;;16.64;100.00;95736.28;4945520;28;20034;-83
2023/06/17 06:09:44;;;;;;;2.63;2.40;;;;;;;16.68;100.00;95716.59;4946852;29;20480;-81
2023/06/17 06:12:10;;;;;;;3.53;3.22;;;;;;;16.78;100.00;95731.97;4945591;28;20622;-83
2023/06/17 06:14:36;;;;;;;3.25;3.00;;;;;;;16.76;100.00;95734.00;4946455;28;20019;-82
2023/06/17 06:17:01;;;;;;;3.25;2.80;;;;;;;16.72;100.00;95730.13;4945932;29;20034;-82
2023/06/17 06:19:26;;;;;;;3.85;3.55;;;;;;;16.58;100.00;95703.03;4945934;29;20020;-82
2023/06/17 06:21:52;;;;;;;3.03;2.83;;;;;;;16.76;100.00;95698.13;4946650;29;20034;-81
2023/06/17 06:24:17;;;;;;;3.95;3.65;;;;;;;16.72;100.00;95685.66;4938539;28;20042;-81
2023/06/17 06:26:43;;;;;;;4.05;3.75;;;;;;;16.90;100.00;95696.44;4932531;28;20035;-81
2023/06/17 06:29:09;;;;;;;4.30;3.90;;;;;;;16.96;100.00;95687.81;4939596;28;20069;-82
2023/06/17 06:31:34;;;;;;;3.67;3.10;;;;;;;17.02;100.00;95668.72;4943035;29;20043;-88
2023/06/17 06:34:00;;;;;;;4.35;4.05;;;;;;;17.05;100.00;95641.38;4943768;28;20039;-79
2023/06/17 06:36:25;;;;;;;4.93;3.70;;;;;;;16.89;100.00;95639.06;4946072;28;20440;-77
2023/06/17 06:38:51;;;;;;;4.60;3.38;;;;;;;16.81;100.00;95613.84;4945932;29;20023;-85
2023/06/17 06:41:16;;;;;;;4.50;4.20;;;;;;;16.84;100.00;95627.38;4931122;29;20647;-85
2023/06/17 06:43:42;;;;;;;5.70;5.05;;;;;;;16.88;100.00;95622.56;4945961;29;20027;-83
2023/06/17 06:46:07;;;;;;;4.88;4.57;;;;;;;17.06;100.00;95659.50;4940437;28;20070;-84
2023/06/17 06:48:32;;;;;;;5.50;5.20;;;;;;;17.11;100.00;95669.41;4933744;28;20034;-84
2023/06/17 06:50:58;;;;;;;5.97;5.57;;;;;;;17.08;100.00;95670.56;4914933;29;20087;-83
2023/06/17 06:53:24;;;;;;;6.57;6.05;;;;;;;16.94;100.00;95663.66;4939113;28;20035;-85
2023/06/17 06:55:50;;;;;;;5.75;5.28;;;;;;;16.93;100.00;95693.44;4944523;29;20421;-78
2023/06/17 06:58:15;;;;;;;6.18;5.78;;;;;;;16.86;100.00;95661.16;4945836;28;20882;-72
2023/06/17 07:00:41;;;;;;;6.85;6.18;;;;;;;16.84;100.00;95647.47;4945540;29;20034;-85
2023/06/17 07:03:06;;;;;;;6.57;6.07;;;;;;;16.81;100.00;95637.41;4959503;28;20030;-82
2023/06/17 07:05:31;;;;;;;8.13;7.60;;;;;;;16.64;100.00;95623.81;4944167;29;20028;-84
2023/06/17 07:07:57;;;;;;;7.28;6.88;;;;;;;16.65;100.00;95638.50;4942991;29;20019;-75
2023/06/17 07:10:23;;;;;;;7.00;6.38;;;;;;;16.58;100.00;95635.03;4945667;28;20517;-74
2023/06/17 07:12:48;;;;;;;6.25;5.85;;;;;;;16.43;100.00;95612.56;4944324;29;20071;-76
2023/06/17 07:15:14;;;;;;;6.25;5.85;;;;;;;16.57;100.00;95635.22;4945516;29;20077;-77
2023/06/17 07:17:39;;;;;;;7.13;6.53;;;;;;;16.58;100.00;95657.75;4944579;29;20154;-83
2023/06/17 07:20:05;;;;;;;5.80;5.40;;;;;;;16.52;100.00;95661.09;4943574;29;20441;-83
2023/06/17 07:22:31;;;;;;;5.35;5.05;;;;;;;16.54;100.00;95661.72;4943782;29;20031;-82
2023/06/17 07:24:56;;;;;;;5.90;5.50;;;;;;;16.50;100.00;95665.72;4942899;28;20038;-86
2023/06/17 07:27:22;;;;;;;5.30;4.90;;;;;;;16.54;100.00;95674.78;4946064;28;20027;-88
2023/06/17 07:29:47;;;;;;;5.70;5.20;;;;;;;16.57;100.00;95696.19;4942963;29;20031;-85
2023/06/17 07:32:12;;;;;;;4.72;4.32;;;;;;;16.52;100.00;95693.31;4945310;29;20051;-87
2023/06/17 07:34:38;;;;;;;4.90;4.35;;;;;;;16.67;100.00;95698.47;4926736;29;20086;-85
2023/06/17 07:37:03;;;;;;;5.93;4.53;;;;;;;16.66;100.00;95686.41;4944055;29;20050;-77
2023/06/17 07:39:29;;;;;;;4.95;4.65;;;;;;;16.64;100.00;95683.16;4944925;28;20477;-84
2023/06/17 07:41:54;;;;;;;4.35;3.95;;;;;;;16.74;100.00;95686.25;4926970;29;20515;-82
2023/06/17 07:44:20;;;;;;;4.47;4.05;;;;;;;16.91;100.00;95676.31;4945131;29;20051;-86
2023/06/17 07:46:45;;;;;;;4.55;4.15;;;;;;;17.03;100.00;95675.59;4943912;29;20034;-81
2023/06/17 07:49:11;;;;;;;2.97;2.78;;;;;;;16.81;100.00;95629.56;4943868;29;20045;-77
2023/06/17 07:51:36;;;;;;;4.18;3.10;;;;;;;17.01;100.00;95620.00;4943483;29;20044;-85
2023/06/17 07:54:04;;;;;;;3.28;3.05;;;;;;;17.35;100.00;95625.19;4944619;28;20046;-82
2023/06/17 07:56:30;;;;;;;2.40;2.30;;;;;;;17.70;100.00;95628.56;4913089;29;20031;-84
2023/06/17 07:58:56;;;;;;;2.53;2.22;;;;;;;17.93;100.00;95549.56;4935800;29;20507;-84
2023/06/17 08:01:22;;;;;;;2.13;1.92;;;;;;;18.12;100.00;95485.84;4944753;29;20035;-82
2023/06/17 08:03:47;;;;;;;3.00;1.92;;;;;;;18.11;100.00;95478.97;4943650;29;20493;-80
2023/06/17 08:06:16;;;;;;;1.95;1.85;;;;;;;18.22;100.00;95485.41;4944698;28;20031;-84
2023/06/17 08:08:42;;;;;;;1.58;1.40;;;;;;;18.24;100.00;95483.38;4943444;29;20030;-81
2023/06/17 08:11:08;;;;;;;1.98;1.48;;;;;;;18.10;100.00;95453.78;4943556;29;20485;-76
2023/06/17 08:13:33;;;;;;;1.73;1.40;;;;;;;18.16;100.00;95447.72;4942272;29;20051;-78
2023/06/17 08:15:58;;;;;;;2.83;1.60;;;;;;;18.23;100.00;95452.94;4943915;28;20049;-88
2023/06/17 08:18:24;;;;;;;1.33;1.23;;;;;;;18.19;100.00;95464.84;4926780;29;20028;-83
2023/06/17 08:20:49;;;;;;;1.48;1.38;;;;;;;18.17;100.00;95428.31;4943360;29;20023;-78
2023/06/17 08:23:15;;;;;;;1.10;1.00;;;;;;;18.07;100.00;95408.81;4944476;29;20127;-80
2023/06/17 08:25:41;;;;;;;1.45;1.10;;;;;;;18.00;100.00;95385.22;4941656;29;20109;-83
2023/06/17 08:28:06;;;;;;;1.40;1.30;;;;;;;18.18;100.00;95414.22;4943144;29;20109;-85
2023/06/17 08:30:31;;;;;;;1.77;1.67;;;;;;;18.39;100.00;95445.44;4942045;29;20023;-82
2023/06/17 08:32:57;;;;;;;1.52;1.42;;;;;;;18.30;100.00;95393.41;4943776;28;20063;-74
2023/06/17 08:35:23;;;;;;;1.70;1.20;;;;;;;18.31;100.00;95338.13;4941758;29;20031;-86
2023/06/17 08:37:48;;;;;;;3.50;1.50;;;;;;;18.42;100.00;95345.34;4943335;28;20086;-84
2023/06/17 08:40:17;;;;;;;2.05;1.50;;;;;;;18.50;100.00;95390.72;4942209;28;20070;-76
2023/06/17 08:42:43;;;;;;;1.33;1.10;;;;;;;18.33;100.00;95315.09;4925813;29;20090;-73
2023/06/17 08:45:09;;;;;;;1.65;1.17;;;;;;;18.30;100.00;95305.03;4943965;29;20036;-79
2023/06/17 08:47:35;;;;;;;2.05;1.20;;;;;;;18.58;100.00;95382.63;4942771;28;20030;-79
2023/06/17 08:50:01;;;;;;;1.60;1.10;;;;;;;18.68;100.00;95393.50;4943459;28;20028;-73
2023/06/17 08:52:27;;;;;;;3.05;1.25;;;;;;;18.64;100.00;95376.53;4942874;28;20465;-75
2023/06/17 08:54:53;;;;;;;1.20;1.10;;;;;;;18.65;100.00;95350.09;4942415;29;20027;-76
2023/06/17 08:57:19;;;;;;;1.73;1.25;;;;;;;18.84;100.00;95353.63;4943516;28;20086;-74
2023/06/17 08:59:45;;;;;;;1.65;1.55;;;;;;;18.76;100.00;95333.66;4942944;29;20987;-82
2023/06/17 09:02:10;;;;;;;3.85;1.95;;;;;;;18.66;100.00;95366.63;4942198;29;20034;-81
2023/06/17 09:04:36;;;;;;;1.67;1.58;;;;;;;18.61;100.00;95382.22;4941087;29;20027;-79
2023/06/17 09:07:02;;;;;;;1.77;1.40;;;;;;;18.59;100.00;95319.44;4942337;29;20493;-83
2023/06/17 09:09:27;;;;;;;1.83;1.23;;;;;;;18.68;100.00;95328.69;4940887;29;20057;-81
2023/06/17 09:11:53;;;;;;;1.48;1.20;;;;;;;18.61;100.00;95380.41;4943457;28;20067;-81
2023/06/17 09:14:21;;;;;;;2.03;1.85;;;;;;;18.56;100.00;95403.81;4941050;29;20031;-85
2023/06/17 09:16:49;;;;;;;4.63;1.88;;;;;;;18.62;100.00;95389.84;4942026;29;20019;-77
2023/06/17 09:19:15;;;;;;;4.20;2.03;;;;;;;18.78;100.00;95357.09;4941866;29;20484;-83
2023/06/17 09:21:40;;;;;;;3.10;2.38;;;;;;;18.91;100.00;95391.91;4942707;28;20027;-80
2023/06/17 09:24:08;;;;;;;3.22;2.20;;;;;;;19.15;100.00;95361.47;4943450;29;20027;-80
2023/06/17 09:26:44;;;;;;;2.20;2.00;;;;;;;19.08;100.00;95302.94;4940622;28;20038;-87
2023/06/17 09:29:11;;;;;;;2.08;1.73;;;;;;;19.18;100.00;95329.53;4943283;29;20031;-85
2023/06/17 09:31:50;;;;;;;2.03;1.90;;;;;;;19.04;100.00;95349.03;4941413;28;20055;-81
2023/06/17 09:34:15;;;;;;;;;;;;;;;18.82;100.00;95363.50;4934311;28;20047;-84
2023/06/17 09:36:42;;;;;;;2.90;2.70;;;;;;;18.67;100.00;95415.47;4944121;28;19922;-87
2023/06/17 09:39:12;;;;;;;1.70;1.60;;;;;;;18.36;100.00;95439.81;4942499;28;20062;-79
2023/06/17 09:41:39;;;;;;;1.88;1.77;;;;;;;18.40;100.00;95402.44;4942514;29;20101;-84
2023/06/17 09:44:05;;;;;;;2.33;2.13;;;;;;;18.34;100.00;95444.44;4940697;29;20031;-84
2023/06/17 09:46:35;;;;;;;3.08;2.88;;;;;;;18.35;100.00;95473.09;4926838;29;20023;-81
2023/06/17 09:49:06;;;;;;;3.05;2.85;;;;;;;18.26;100.00;95497.94;4941996;29;20027;-88
2023/06/17 09:51:36;;;;;;;2.72;2.53;;;;;;;18.29;100.00;95517.69;4942149;29;20059;-87
2023/06/17 09:54:02;;;;;;;4.53;2.92;;;;;;;18.21;100.00;95533.63;4942572;29;20039;-86
2023/06/17 09:56:31;;;;;;;4.40;2.80;;;;;;;18.23;100.00;95521.13;4924832;29;20046;-88
2023/06/17 09:58:57;;;;;;;2.67;2.47;;;;;;;18.04;100.00;95514.91;4927484;29;20035;-90
2023/06/17 10:01:24;;;;;;;2.60;2.40;;;;;;;18.06;100.00;95559.25;4925399;29;20518;-87
2023/06/17 10:03:50;;;;;;;2.63;2.42;;;;;;;18.03;100.00;95576.19;4928036;29;20043;-88
2023/06/17 10:06:18;;;;;;;2.60;2.40;;;;;;;18.03;100.00;95607.66;4942476;29;20113;-89
2023/06/17 10:08:44;;;;;;;2.42;2.22;;;;;;;17.98;100.00;95609.28;4943556;29;20058;-89
2023/06/17 10:11:12;;;;;;;2.40;1.92;;;;;;;18.01;100.00;95595.75;4942770;29;20043;-93
2023/06/17 10:13:39;;;;;;;1.95;1.85;;;;;;;18.07;100.00;95610.69;4942181;29;20031;-92
2023/06/17 10:16:07;;;;;;;2.25;1.73;;;;;;;18.08;100.00;95601.78;4945765;28;20133;-88
2023/06/17 10:18:33;;;;;;;2.00;1.80;;;;;;;18.17;100.00;95592.75;4942734;29;20503;-88
2023/06/17 10:21:00;;;;;;;2.45;1.40;;;;;;;18.17;100.00;95614.50;4944757;28;20433;-88
2023/06/17 10:23:26;;;;;;;1.70;1.52;;;;;;;18.19;100.00;95614.31;4942322;29;20042;-88
2023/06/17 10:25:53;;;;;;;1.65;1.55;;;;;;;18.28;100.00;95626.22;4943942;29;20424;-86
2023/06/17 10:28:18;;;;;;;1.40;1.30;;;;;;;18.29;100.00;95623.41;4942678;29;20023;-89
2023/06/17 10:30:46;;;;;;;1.83;1.73;;;;;;;18.23;100.00;95598.00;4942511;29;20112;-91
2023/06/17 10:33:12;;;;;;;1.80;1.60;;;;;;;18.24;100.00;95590.91;4944667;28;20049;-88
2023/06/17 10:35:39;;;;;;;1.85;1.60;;;;;;;18.16;100.00;95604.22;4941999;29;20035;-90
2023/06/17 10:38:04;;;;;;;1.70;1.60;;;;;;;18.27;100.00;95608.88;4946347;28;20481;-86
2023/06/17 10:40:35;;;;;;;2.38;1.50;;;;;;;18.42;100.00;95605.06;4946879;29;20118;-88
2023/06/17 10:43:01;;;;;;;1.42;1.33;;;;;;;18.52;100.00;95599.44;4932806;29;20086;-91
2023/06/17 10:45:30;;;;;;;2.10;1.88;;;;;;;18.47;100.00;95614.91;4948061;28;20480;-86
2023/06/17 10:48:16;;;;;;;4.32;2.05;;;;;;;18.45;100.00;95614.31;4947874;29;20030;-89
2023/06/17 10:50:43;;;;;;;4.70;1.75;;;;;;;18.66;100.00;95623.81;4911811;29;20046;-88
2023/06/17 10:53:14;;;;;;;2.53;1.50;;;;;;;18.82;100.00;95568.25;4945202;29;20031;-95
2023/06/17 10:55:39;;;;;;;2.35;1.40;;;;;;;18.95;100.00;95531.47;4946661;29;20071;-91
2023/06/17 10:58:05;;;;;;;2.20;1.90;;;;;;;18.77;100.00;95521.66;4949059;29;20059;-93
2023/06/17 11:00:30;;;;;;;2.80;2.40;;;;;;;18.81;100.00;95506.28;4930919;29;20042;-83
2023/06/17 11:02:56;;;;;;;2.58;2.33;;;;;;;18.81;100.00;95516.78;4929385;29;20106;-88
2023/06/17 11:05:22;;;;;;;2.72;2.53;;;;;;;19.04;100.00;95506.56;4945262;29;20078;-88
2023/06/17 11:07:47;;;;;;;2.63;2.42;;;;;;;19.05;100.00;95487.19;4946645;29;20023;-87
2023/06/17 11:10:13;;;;;;;2.60;2.40;;;;;;;19.08;100.00;95489.41;4928759;29;20061;-90
2023/06/17 11:12:39;;;;;;;3.80;3.50;;;;;;;18.98;100.00;95491.66;4945712;29;20019;-88
2023/06/17 11:15:08;;;;;;;3.10;2.88;;;;;;;18.88;100.00;95488.66;4944374;29;20031;-89
2023/06/17 11:17:34;;;;;;;2.90;2.58;;;;;;;18.80;100.00;95475.78;4945310;29;20477;-90
2023/06/17 11:19:59;;;;;;;2.80;2.45;;;;;;;18.88;100.00;95515.72;4946074;28;20023;-85